createdAt,value
2019-01-17T00:00:26.789Z,3.97
2019-01-17T00:02:56.983Z,3.63
2019-01-17T00:05:43.413Z,3.47
2019-01-17T00:08:29.783Z,3.70
2019-01-17T00:11:14.953Z,4.60
2019-01-17T00:14:01.584Z,4.30
2019-01-17T00:16:31.682Z,4.20
2019-01-17T00:19:01.797Z,3.80
2019-01-17T00:21:47.217Z,3.93
2019-01-17T00:24:33.900Z,4.30
2019-01-17T00:27:03.991Z,4.03
2019-01-17T00:29:33.804Z,4.20
2019-01-17T00:32:03.562Z,4.43
2019-01-17T00:34:36.457Z,4.37
2019-01-17T00:37:10.531Z,4.30
2019-01-17T00:39:46.621Z,4.43
2019-01-17T00:42:16.391Z,3.93
2019-01-17T00:45:02.721Z,4.10
2019-01-17T00:47:44.645Z,4.03
2019-01-17T00:50:17.545Z,4.00
2019-01-17T00:52:56.453Z,4.33
2019-01-17T00:55:29.274Z,4.00
2019-01-17T00:58:15.097Z,4.30
2019-01-17T01:00:54.059Z,4.20
2019-01-17T01:03:40.350Z,4.80
2019-01-17T01:06:10.143Z,3.97
2019-01-17T01:08:39.925Z,4.23
2019-01-17T01:11:24.988Z,4.70
2019-01-17T01:14:10.402Z,4.50
2019-01-17T01:16:59.573Z,4.27
2019-01-17T01:19:47.559Z,4.57
2019-01-17T01:22:23.469Z,4.43
2019-01-17T01:25:05.233Z,4.63
2019-01-17T01:27:35.029Z,4.10
2019-01-17T01:30:21.300Z,4.77
2019-01-17T01:32:54.059Z,4.13
2019-01-17T01:35:24.182Z,4.00
2019-01-17T01:37:56.713Z,4.17
2019-01-17T01:40:38.615Z,4.43
2019-01-17T01:43:11.499Z,4.53
2019-01-17T01:45:59.669Z,4.00
2019-01-17T01:48:29.775Z,4.07
2019-01-17T01:51:05.508Z,3.90
2019-01-17T01:53:34.223Z,4.13
2019-01-17T01:56:02.420Z,4.50
2019-01-17T01:58:30.571Z,4.23
2019-01-17T02:00:59.104Z,4.07
2019-01-17T02:03:27.601Z,4.03
2019-01-17T02:05:56.127Z,3.90
2019-01-17T02:08:24.256Z,4.60
2019-01-17T02:10:52.480Z,3.53
2019-01-17T02:13:21.271Z,4.30
2019-01-17T02:15:49.716Z,4.57
2019-01-17T02:18:18.179Z,4.60
2019-01-17T02:20:46.740Z,4.77
2019-01-17T02:23:14.876Z,4.60
2019-01-17T02:25:43.108Z,4.57
2019-01-17T02:28:11.834Z,4.97
2019-01-17T02:30:39.973Z,5.17
2019-01-17T02:33:08.118Z,4.93
2019-01-17T02:35:36.355Z,5.27
2019-01-17T02:38:04.892Z,5.67
2019-01-17T02:40:33.047Z,5.50
2019-01-17T02:43:01.626Z,6.53
2019-01-17T02:45:30.080Z,6.97
2019-01-17T02:47:58.577Z,6.63
2019-01-17T02:50:27.036Z,6.00
2019-01-17T02:52:55.539Z,5.70
2019-01-17T02:55:24.329Z,6.73
2019-01-17T02:57:52.821Z,6.33
2019-01-17T03:00:21.283Z,6.87
2019-01-17T03:02:49.672Z,7.07
2019-01-17T03:05:18.169Z,6.90
2019-01-17T03:07:46.319Z,6.70
2019-01-17T03:10:15.523Z,6.67
2019-01-17T03:12:43.736Z,6.90
2019-01-17T03:15:12.455Z,6.50
2019-01-17T03:17:41.045Z,7.27
2019-01-17T03:20:12.178Z,6.77
2019-01-17T03:22:40.653Z,6.97
2019-01-17T03:25:10.682Z,6.33
2019-01-17T03:27:39.514Z,7.10
2019-01-17T03:30:09.199Z,7.50
2019-01-17T03:32:37.706Z,7.17
2019-01-17T03:35:06.161Z,7.77
2019-01-17T03:37:34.281Z,7.60
2019-01-17T03:40:02.763Z,7.70
2019-01-17T03:42:31.610Z,6.83
2019-01-17T03:45:00.178Z,7.10
2019-01-17T03:47:28.405Z,7.20
2019-01-17T03:49:56.544Z,7.53
2019-01-17T03:52:25.024Z,7.37
2019-01-17T03:54:54.094Z,7.27
2019-01-17T03:57:22.416Z,7.53
2019-01-17T03:59:50.558Z,7.80
2019-01-17T04:02:18.724Z,7.93
2019-01-17T04:04:47.150Z,7.27
2019-01-17T04:07:15.722Z,8.20
2019-01-17T04:09:44.184Z,8.27
2019-01-17T04:12:12.326Z,8.00
2019-01-17T04:14:40.476Z,7.33
2019-01-17T04:17:08.622Z,7.70
2019-01-17T04:19:36.791Z,7.00
2019-01-17T04:22:04.997Z,7.00
2019-01-17T04:24:33.774Z,6.87
2019-01-17T04:27:02.238Z,6.57
2019-01-17T04:29:30.717Z,7.20
2019-01-17T04:31:58.852Z,6.80
2019-01-17T04:34:27.023Z,6.97
2019-01-17T04:36:55.142Z,6.73
2019-01-17T04:39:23.266Z,6.67
2019-01-17T04:41:51.761Z,6.10
2019-01-17T04:44:20.248Z,6.10
2019-01-17T04:46:49.079Z,6.90
2019-01-17T04:49:17.571Z,6.90
2019-01-17T04:51:46.068Z,6.83
2019-01-17T04:54:14.617Z,6.70
2019-01-17T04:56:43.071Z,6.47
2019-01-17T04:59:11.305Z,6.40
2019-01-17T05:01:39.771Z,6.80
2019-01-17T05:04:07.939Z,5.90
2019-01-17T05:06:36.067Z,5.90
2019-01-17T05:09:05.870Z,6.17
2019-01-17T05:11:34.031Z,5.50
2019-01-17T05:14:02.501Z,5.60
2019-01-17T05:16:31.047Z,5.67
2019-01-17T05:18:59.521Z,5.73
2019-01-17T05:21:27.664Z,5.43
2019-01-17T05:23:55.798Z,5.40
2019-01-17T05:26:24.293Z,5.03
2019-01-17T05:28:52.742Z,5.27
2019-01-17T05:31:21.283Z,5.03
2019-01-17T05:33:49.755Z,4.47
2019-01-17T05:36:18.206Z,4.23
2019-01-17T05:38:46.360Z,4.83
2019-01-17T05:41:15.273Z,4.67
2019-01-17T05:43:43.743Z,4.87
2019-01-17T05:46:12.645Z,4.97
2019-01-17T05:48:41.100Z,4.50
2019-01-17T05:51:09.587Z,5.37
2019-01-17T05:53:37.765Z,5.07
2019-01-17T05:56:06.218Z,4.90
2019-01-17T05:58:34.357Z,5.20
2019-01-17T06:01:02.497Z,4.57
2019-01-17T06:03:30.700Z,5.17
2019-01-17T06:05:59.169Z,4.77
2019-01-17T06:08:27.675Z,4.67
2019-01-17T06:10:56.131Z,4.77
2019-01-17T06:13:24.715Z,4.43
2019-01-17T06:15:52.933Z,4.77
2019-01-17T06:18:21.392Z,4.70
2019-01-17T06:20:49.874Z,5.27
2019-01-17T06:23:18.636Z,4.40
2019-01-17T06:25:46.780Z,5.17
2019-01-17T06:28:15.262Z,5.50
2019-01-17T06:30:44.083Z,5.17
2019-01-17T06:33:12.235Z,5.53
2019-01-17T06:35:40.369Z,5.73
2019-01-17T06:38:08.828Z,5.63
2019-01-17T06:40:36.995Z,5.30
2019-01-17T06:43:05.165Z,5.37
2019-01-17T06:45:33.310Z,6.23
2019-01-17T06:48:01.778Z,5.33
2019-01-17T06:50:30.242Z,5.87
2019-01-17T06:52:58.719Z,6.00
2019-01-17T06:55:27.268Z,6.37
2019-01-17T06:57:55.391Z,6.00
2019-01-17T07:00:23.546Z,6.20
2019-01-17T07:02:51.682Z,6.70
2019-01-17T07:05:19.852Z,6.30
2019-01-17T07:07:48.658Z,6.97
2019-01-17T07:10:18.658Z,8.47
2019-01-17T07:12:47.462Z,9.23
2019-01-17T07:15:15.666Z,8.93
2019-01-17T07:17:43.808Z,8.87
2019-01-17T07:20:13.427Z,8.83
2019-01-17T07:22:42.042Z,8.90
2019-01-17T07:25:11.253Z,9.30
2019-01-17T07:27:39.504Z,8.33
2019-01-17T07:30:12.489Z,8.00
2019-01-17T07:32:40.933Z,7.27
2019-01-17T07:35:10.161Z,7.50
2019-01-17T07:37:38.322Z,6.80
2019-01-17T07:40:09.466Z,7.07
2019-01-17T07:42:37.948Z,7.37
2019-01-17T07:45:07.640Z,6.77
2019-01-17T07:47:36.095Z,7.27
2019-01-17T07:50:05.773Z,8.07
2019-01-17T07:52:34.243Z,7.63
2019-01-17T07:55:02.396Z,7.67
2019-01-17T07:57:30.527Z,8.17
2019-01-17T07:59:58.953Z,8.10
2019-01-17T08:02:27.438Z,7.93
2019-01-17T08:04:55.891Z,8.30
2019-01-17T08:07:24.050Z,7.17
2019-01-17T08:09:52.255Z,7.93
2019-01-17T08:12:20.421Z,7.90
2019-01-17T08:14:48.546Z,7.67
2019-01-17T08:17:16.697Z,7.83
2019-01-17T08:19:44.847Z,7.50
2019-01-17T08:22:12.969Z,8.07
2019-01-17T08:24:41.715Z,8.57
2019-01-17T08:27:10.326Z,7.43
2019-01-17T08:29:38.825Z,8.00
2019-01-17T08:32:06.955Z,7.87
2019-01-17T08:34:35.124Z,8.17
2019-01-17T08:37:03.350Z,7.20
2019-01-17T08:39:31.874Z,6.93
2019-01-17T08:42:00.022Z,6.40
2019-01-17T08:44:28.487Z,6.33
2019-01-17T08:46:56.963Z,6.07
2019-01-17T08:49:25.119Z,6.50
2019-01-17T08:51:53.252Z,7.43
2019-01-17T08:54:21.661Z,7.30
2019-01-17T08:56:50.297Z,6.40
2019-01-17T08:59:18.785Z,8.50
2019-01-17T09:01:47.262Z,8.00
2019-01-17T09:04:15.759Z,6.40
2019-01-17T09:06:44.228Z,6.30
2019-01-17T09:09:12.714Z,6.67
2019-01-17T09:11:41.200Z,6.13
2019-01-17T09:14:09.672Z,5.83
2019-01-17T09:16:38.159Z,5.83
2019-01-17T09:19:06.632Z,6.67
2019-01-17T09:21:35.180Z,6.13
2019-01-17T09:24:04.009Z,5.40
2019-01-17T09:26:32.608Z,6.10
2019-01-17T09:29:01.068Z,5.67
2019-01-17T09:31:29.523Z,4.97
2019-01-17T09:33:58.347Z,6.03
2019-01-17T09:36:26.884Z,6.40
2019-01-17T09:38:55.817Z,5.90
2019-01-17T09:41:24.273Z,5.07
2019-01-17T09:43:52.775Z,5.90
2019-01-17T09:46:21.274Z,6.33
2019-01-17T09:48:49.438Z,6.97
2019-01-17T09:51:17.988Z,6.87
2019-01-17T09:53:46.160Z,6.67
2019-01-17T09:56:15.016Z,8.43
2019-01-17T09:58:43.956Z,6.50
2019-01-17T10:01:12.101Z,6.53
2019-01-17T10:03:41.022Z,6.70
2019-01-17T10:06:09.797Z,5.60
2019-01-17T10:08:38.691Z,5.70
2019-01-17T10:11:07.094Z,4.93
2019-01-17T10:13:35.559Z,5.50
2019-01-17T10:16:07.175Z,5.43
2019-01-17T10:19:02.497Z,5.10
2019-01-17T10:21:52.071Z,5.97
2019-01-17T10:24:44.872Z,6.90
2019-01-17T10:27:42.493Z,5.73
2019-01-17T10:30:14.951Z,6.63
2019-01-17T10:32:55.583Z,6.13
2019-01-17T10:36:09.080Z,6.67
2019-01-17T10:38:38.793Z,7.50
2019-01-17T10:41:20.556Z,7.07
2019-01-17T10:43:56.738Z,5.77
2019-01-17T10:46:44.905Z,6.90
2019-01-17T10:49:34.350Z,6.20
2019-01-17T10:52:22.623Z,5.70
2019-01-17T10:55:17.723Z,5.70
2019-01-17T10:58:05.665Z,5.33
2019-01-17T11:00:41.481Z,5.73
2019-01-17T11:03:13.644Z,6.10
2019-01-17T11:05:43.874Z,6.20
2019-01-17T11:08:13.610Z,5.87
2019-01-17T11:10:43.301Z,5.73
2019-01-17T11:13:36.458Z,5.73
2019-01-17T11:16:15.092Z,6.40
2019-01-17T11:18:49.534Z,5.87
2019-01-17T11:21:30.265Z,5.13
2019-01-17T11:24:10.564Z,4.93
2019-01-17T11:26:51.019Z,5.20
2019-01-17T11:29:53.125Z,5.83
2019-01-17T11:32:30.898Z,5.23
2019-01-17T11:35:02.472Z,5.23
2019-01-17T11:37:36.868Z,5.40
2019-01-17T11:40:23.477Z,5.53
2019-01-17T11:43:02.283Z,4.50
2019-01-17T11:45:34.940Z,4.03
2019-01-17T11:48:36.664Z,4.10
2019-01-17T11:51:13.980Z,3.77
2019-01-17T11:54:12.324Z,3.97
2019-01-17T11:56:42.008Z,3.60
2019-01-17T11:59:16.182Z,3.63
2019-01-17T12:01:45.970Z,3.53
2019-01-17T12:04:18.618Z,3.30
2019-01-17T12:06:46.775Z,3.67
2019-01-17T12:09:14.938Z,3.10
2019-01-17T12:11:43.084Z,3.17
2019-01-17T12:14:11.582Z,3.00
2019-01-17T12:16:39.973Z,2.93
2019-01-17T12:19:08.549Z,2.50
2019-01-17T12:21:36.665Z,2.50
2019-01-17T12:24:05.127Z,2.73
2019-01-17T12:26:33.624Z,2.80
2019-01-17T12:29:01.762Z,3.00
2019-01-17T12:31:29.989Z,2.70
2019-01-17T12:33:58.128Z,2.03
2019-01-17T12:36:26.302Z,2.20
2019-01-17T12:38:54.736Z,2.33
2019-01-17T12:41:23.207Z,2.30
2019-01-17T12:43:51.602Z,2.03
2019-01-17T12:46:19.749Z,2.23
2019-01-17T12:48:47.904Z,2.10
2019-01-17T12:51:16.454Z,2.07
2019-01-17T12:53:44.963Z,1.60
2019-01-17T12:56:13.422Z,1.43
2019-01-17T12:58:41.592Z,1.80
2019-01-17T13:01:09.725Z,1.50
2019-01-17T13:03:37.909Z,1.83
2019-01-17T13:06:06.129Z,2.33
2019-01-17T13:08:34.707Z,1.87
2019-01-17T13:11:03.230Z,1.80
2019-01-17T13:13:31.690Z,1.47
2019-01-17T13:15:59.917Z,1.90
2019-01-17T13:18:28.079Z,1.53
2019-01-17T13:20:58.294Z,1.80
2019-01-17T13:23:26.767Z,1.90
2019-01-17T13:25:55.664Z,1.63
2019-01-17T13:28:23.796Z,1.70
2019-01-17T13:30:51.958Z,1.80
2019-01-17T13:33:21.022Z,1.73
2019-01-17T13:35:49.916Z,2.10
2019-01-17T13:38:18.091Z,2.17
2019-01-17T13:40:46.329Z,2.00
2019-01-17T13:43:15.130Z,1.70
2019-01-17T13:45:43.686Z,1.77
2019-01-17T13:48:12.265Z,1.60
2019-01-17T13:50:40.457Z,2.47
2019-01-17T13:53:09.030Z,2.50
2019-01-17T13:55:37.579Z,2.03
2019-01-17T13:58:06.074Z,2.20
2019-01-17T14:00:34.588Z,2.43
2019-01-17T14:03:02.746Z,2.43
2019-01-17T14:05:31.278Z,3.00
2019-01-17T14:08:00.155Z,2.57
2019-01-17T14:10:28.289Z,2.40
2019-01-17T14:12:56.465Z,2.00
2019-01-17T14:15:28.813Z,2.33
2019-01-17T14:17:57.028Z,2.00
2019-01-17T14:20:25.182Z,1.80
2019-01-17T14:22:53.382Z,1.90
2019-01-17T14:25:21.872Z,1.80
2019-01-17T14:27:50.364Z,1.73
2019-01-17T14:30:20.070Z,1.93
2019-01-17T14:32:48.570Z,1.93
2019-01-17T14:35:16.703Z,1.70
2019-01-17T14:37:44.930Z,1.80
2019-01-17T14:40:13.470Z,1.67
2019-01-17T14:42:41.967Z,1.50
2019-01-17T14:45:13.873Z,1.60
2019-01-17T14:47:42.365Z,1.60
2019-01-17T14:50:19.739Z,1.50
2019-01-17T14:52:47.869Z,1.53
2019-01-17T14:55:16.308Z,1.60
2019-01-17T14:57:44.866Z,1.97
2019-01-17T15:00:20.327Z,2.07
2019-01-17T15:02:48.885Z,2.07
2019-01-17T15:05:17.055Z,2.00
2019-01-17T15:07:45.186Z,1.90
2019-01-17T15:10:14.879Z,2.03
2019-01-17T15:12:43.344Z,1.97
2019-01-17T15:15:11.577Z,2.17
2019-01-17T15:17:40.177Z,1.73
2019-01-17T15:20:10.079Z,1.60
2019-01-17T15:22:38.335Z,1.60
2019-01-17T15:25:07.048Z,1.90
2019-01-17T15:27:35.499Z,1.70
2019-01-17T15:30:05.337Z,2.00
2019-01-17T15:32:33.489Z,1.47
2019-01-17T15:35:01.661Z,1.60
2019-01-17T15:37:29.848Z,1.60
2019-01-17T15:39:58.065Z,1.80
2019-01-17T15:42:26.486Z,1.80
2019-01-17T15:44:54.633Z,1.90
2019-01-17T15:47:22.848Z,1.80
2019-01-17T15:49:50.997Z,1.60
2019-01-17T15:52:19.497Z,1.70
2019-01-17T15:54:47.624Z,1.53
2019-01-17T15:57:16.185Z,1.40
2019-01-17T15:59:44.348Z,1.80
2019-01-17T16:02:13.201Z,1.90
2019-01-17T16:04:41.649Z,1.70
2019-01-17T16:07:09.806Z,2.10
2019-01-17T16:09:38.031Z,1.90
2019-01-17T16:12:06.529Z,2.10
2019-01-17T16:14:35.001Z,2.10
2019-01-17T16:17:03.145Z,1.80
2019-01-17T16:19:31.332Z,1.53
2019-01-17T16:21:59.494Z,1.40
2019-01-17T16:24:27.678Z,1.80
2019-01-17T16:26:56.133Z,1.60
2019-01-17T16:29:24.617Z,1.80
2019-01-17T16:31:52.834Z,1.77
2019-01-17T16:34:20.986Z,1.77
2019-01-17T16:36:49.453Z,1.53
2019-01-17T16:39:17.650Z,1.73
2019-01-17T16:41:45.848Z,1.50
2019-01-17T16:44:14.357Z,1.77
2019-01-17T16:46:42.844Z,2.13
2019-01-17T16:49:11.081Z,1.70
2019-01-17T16:51:39.253Z,1.93
2019-01-17T16:54:07.723Z,2.17
2019-01-17T16:56:35.968Z,1.90
2019-01-17T16:59:04.765Z,1.80
2019-01-17T17:01:32.902Z,2.17
2019-01-17T17:04:01.266Z,2.30
2019-01-17T17:06:29.528Z,2.53
2019-01-17T17:08:58.004Z,2.90
2019-01-17T17:11:26.247Z,2.80
2019-01-17T17:13:54.406Z,2.80
2019-01-17T17:16:22.543Z,3.73
2019-01-17T17:18:51.406Z,3.93
2019-01-17T17:21:19.550Z,4.03
2019-01-17T17:23:47.961Z,3.63
2019-01-17T17:26:16.164Z,3.60
2019-01-17T17:28:44.375Z,3.60
2019-01-17T17:31:12.530Z,4.13
2019-01-17T17:33:40.654Z,3.60
2019-01-17T17:36:08.838Z,4.13
2019-01-17T17:38:37.302Z,4.10
2019-01-17T17:41:05.847Z,3.83
2019-01-17T17:43:34.021Z,4.27
2019-01-17T17:46:02.490Z,5.00
2019-01-17T17:48:30.695Z,4.70
2019-01-17T17:50:58.856Z,5.20
2019-01-17T17:53:26.996Z,4.83
2019-01-17T17:55:55.463Z,6.17
2019-01-17T17:58:23.617Z,4.00
2019-01-17T18:00:53.414Z,4.13
2019-01-17T18:03:21.998Z,3.30
2019-01-17T18:05:50.136Z,2.53
2019-01-17T18:08:18.306Z,2.60
2019-01-17T18:10:46.940Z,2.57
2019-01-17T18:13:15.120Z,2.63
2019-01-17T18:15:43.776Z,2.93
2019-01-17T18:18:12.306Z,3.63
2019-01-17T18:20:40.459Z,2.67
2019-01-17T18:23:08.586Z,4.27
2019-01-17T18:25:36.816Z,4.47
2019-01-17T18:28:08.910Z,4.80
2019-01-17T18:30:35.745Z,4.37
2019-01-17T18:33:03.969Z,4.10
2019-01-17T18:35:32.512Z,4.00
2019-01-17T18:38:00.649Z,4.30
2019-01-17T18:40:28.810Z,3.80
2019-01-17T18:42:56.953Z,3.67
2019-01-17T18:45:25.901Z,3.33
2019-01-17T18:47:54.117Z,3.00
2019-01-17T18:50:28.233Z,5.70
2019-01-17T18:52:56.769Z,5.90
2019-01-17T18:55:24.977Z,4.90
2019-01-17T18:57:53.216Z,5.80
2019-01-17T19:00:23.687Z,4.50
2019-01-17T19:02:51.986Z,4.00
2019-01-17T19:05:20.382Z,3.80
2019-01-17T19:07:48.933Z,5.03
2019-01-17T19:10:17.934Z,5.63
2019-01-17T19:12:46.402Z,4.93
2019-01-17T19:15:20.866Z,4.20
2019-01-17T19:17:49.400Z,3.70
2019-01-17T19:20:18.787Z,3.20
2019-01-17T19:22:46.991Z,3.70
2019-01-17T19:25:15.718Z,3.67
2019-01-17T19:27:43.921Z,3.70
2019-01-17T19:30:15.976Z,3.00
2019-01-17T19:32:44.791Z,3.37
2019-01-17T19:35:13.095Z,3.90
2019-01-17T19:37:41.309Z,4.53
2019-01-17T19:40:16.457Z,4.40
2019-01-17T19:42:45.170Z,4.70
2019-01-17T19:45:15.066Z,4.30
2019-01-17T19:47:43.372Z,5.30
2019-01-17T19:50:20.552Z,4.90
2019-01-17T19:52:49.320Z,4.07
2019-01-17T19:55:17.916Z,4.30
2019-01-17T19:57:46.148Z,4.10
2019-01-17T20:00:15.839Z,3.97
2019-01-17T20:02:43.974Z,4.20
2019-01-17T20:05:13.411Z,4.57
2019-01-17T20:07:41.558Z,3.63
2019-01-17T20:10:16.038Z,3.97
2019-01-17T20:12:44.778Z,4.33
2019-01-17T20:15:13.425Z,4.53
2019-01-17T20:17:41.647Z,4.73
2019-01-17T20:20:11.419Z,5.53
2019-01-17T20:22:39.579Z,9.40
2019-01-17T20:25:08.284Z,11.10
2019-01-17T20:27:36.421Z,10.53
2019-01-17T20:30:15.121Z,8.90
2019-01-17T20:32:43.642Z,9.23
2019-01-17T20:35:12.168Z,10.70
2019-01-17T20:37:41.039Z,10.73
2019-01-17T20:40:12.843Z,9.73
2019-01-17T20:42:41.652Z,7.47
2019-01-17T20:45:10.756Z,7.93
2019-01-17T20:47:38.990Z,8.13
2019-01-17T20:50:09.071Z,7.87
2019-01-17T20:52:37.234Z,8.73
2019-01-17T20:55:08.554Z,9.30
2019-01-17T20:57:36.995Z,9.00
2019-01-17T21:00:06.681Z,8.17
2019-01-17T21:02:35.173Z,6.63
2019-01-17T21:05:04.221Z,7.20
2019-01-17T21:07:32.345Z,8.10
2019-01-17T21:10:00.514Z,8.47
2019-01-17T21:12:28.668Z,9.10
2019-01-17T21:14:57.219Z,7.80
2019-01-17T21:17:25.375Z,9.30
2019-01-17T21:19:53.555Z,10.07
2019-01-17T21:22:22.128Z,10.37
2019-01-17T21:24:50.660Z,9.60
2019-01-17T21:27:18.811Z,8.13
2019-01-17T21:29:47.203Z,7.43
2019-01-17T21:32:15.362Z,6.37
2019-01-17T21:34:43.582Z,6.33
2019-01-17T21:37:12.005Z,7.03
2019-01-17T21:39:40.494Z,7.33
2019-01-17T21:42:08.959Z,7.90
2019-01-17T21:44:37.133Z,7.70
2019-01-17T21:47:05.558Z,6.70
2019-01-17T21:49:34.054Z,7.23
2019-01-17T21:52:02.233Z,7.70
2019-01-17T21:54:30.400Z,6.93
2019-01-17T21:56:58.897Z,5.13
2019-01-17T21:59:27.394Z,4.90
2019-01-17T22:01:55.529Z,4.87
2019-01-17T22:04:23.694Z,5.17
2019-01-17T22:06:51.863Z,5.30
2019-01-17T22:09:20.012Z,4.97
2019-01-17T22:11:48.174Z,5.57
2019-01-17T22:14:16.642Z,4.80
2019-01-17T22:16:44.780Z,5.37
2019-01-17T22:19:12.927Z,5.10
2019-01-17T22:21:41.430Z,5.00
2019-01-17T22:24:10.164Z,4.47
2019-01-17T22:26:38.723Z,4.00
2019-01-17T22:29:06.853Z,4.37
2019-01-17T22:31:35.027Z,4.27
2019-01-17T22:34:03.873Z,4.20
2019-01-17T22:36:32.050Z,4.60
2019-01-17T22:39:00.167Z,4.73
2019-01-17T22:41:28.341Z,4.77
2019-01-17T22:43:56.536Z,4.47
2019-01-17T22:46:25.343Z,4.40
2019-01-17T22:48:53.520Z,5.53
2019-01-17T22:51:21.649Z,4.90
2019-01-17T22:53:50.126Z,4.33
2019-01-17T22:56:18.337Z,3.90
2019-01-17T22:58:46.495Z,4.30
2019-01-17T23:01:15.823Z,3.83
2019-01-17T23:03:43.998Z,3.90
2019-01-17T23:06:12.496Z,3.90
2019-01-17T23:08:40.661Z,3.90
2019-01-17T23:11:08.902Z,3.77
2019-01-17T23:13:37.331Z,4.03
2019-01-17T23:16:06.426Z,3.93
2019-01-17T23:18:35.408Z,3.70
2019-01-17T23:21:03.609Z,3.80
2019-01-17T23:23:31.763Z,3.80
2019-01-17T23:25:59.907Z,4.10
2019-01-17T23:28:28.420Z,5.03
2019-01-17T23:30:57.184Z,4.67
2019-01-17T23:33:25.322Z,5.30
2019-01-17T23:35:53.470Z,5.03
2019-01-17T23:38:21.959Z,5.23
2019-01-17T23:40:50.092Z,4.60
2019-01-17T23:43:18.590Z,5.37
2019-01-17T23:45:46.717Z,5.43
2019-01-17T23:48:15.220Z,4.90
2019-01-17T23:50:43.627Z,5.67
2019-01-17T23:53:12.166Z,5.53
2019-01-17T23:55:40.403Z,4.53
2019-01-17T23:58:08.563Z,4.63
